createdAt,value
2022-10-04T00:00:41.596Z,83.35
2022-10-04T00:03:26.471Z,83.75
2022-10-04T00:05:52.609Z,83.42
2022-10-04T00:08:35.888Z,84.35
2022-10-04T00:11:15.014Z,83.31
2022-10-04T00:13:38.334Z,83.50
2022-10-04T00:16:00.170Z,83.47
2022-10-04T00:18:29.410Z,83.24
2022-10-04T00:20:50.954Z,83.08
2022-10-04T00:23:24.714Z,83.39
2022-10-04T00:25:46.191Z,84.13
2022-10-04T00:28:28.019Z,83.50
2022-10-04T00:31:10.123Z,83.00
2022-10-04T00:33:40.558Z,82.93
2022-10-04T00:36:24.838Z,82.19
2022-10-04T00:39:04.012Z,82.83
2022-10-04T00:41:27.198Z,84.48
2022-10-04T00:43:50.065Z,83.69
2022-10-04T00:46:16.283Z,83.44
2022-10-04T00:48:52.918Z,83.16
2022-10-04T00:51:41.523Z,82.65
2022-10-04T00:54:23.642Z,82.76
2022-10-04T00:56:52.948Z,82.72
2022-10-04T00:59:22.678Z,82.76
2022-10-04T01:01:47.789Z,82.96
2022-10-04T01:04:27.512Z,82.66
2022-10-04T01:06:49.522Z,82.62
2022-10-04T01:09:12.719Z,82.50
2022-10-04T01:11:45.692Z,82.60
2022-10-04T01:14:32.142Z,83.46
2022-10-04T01:16:53.683Z,83.28
2022-10-04T01:19:27.197Z,82.97
2022-10-04T01:22:03.488Z,83.32
2022-10-04T01:24:24.949Z,83.56
2022-10-04T01:26:46.634Z,83.04
2022-10-04T01:29:12.894Z,82.89
2022-10-04T01:31:37.577Z,82.41
2022-10-04T01:34:00.988Z,82.80
2022-10-04T01:36:22.748Z,82.69
2022-10-04T01:38:44.335Z,84.02
2022-10-04T01:41:08.140Z,85.54
2022-10-04T01:43:36.543Z,85.13
2022-10-04T01:46:07.646Z,85.09
2022-10-04T01:48:34.725Z,84.34
2022-10-04T01:51:05.462Z,84.17
2022-10-04T01:53:29.971Z,84.32
2022-10-04T01:55:55.967Z,84.90
2022-10-04T01:58:22.365Z,84.95
2022-10-04T02:00:53.274Z,84.74
2022-10-04T02:03:20.896Z,84.46
2022-10-04T02:05:49.845Z,85.02
2022-10-04T02:08:18.619Z,86.34
2022-10-04T02:10:43.491Z,86.47
2022-10-04T02:13:11.065Z,86.33
2022-10-04T02:15:35.605Z,85.82
2022-10-04T02:17:59.108Z,88.60
2022-10-04T02:20:25.216Z,87.17
2022-10-04T02:22:50.879Z,86.42
2022-10-04T02:25:14.617Z,86.30
2022-10-04T02:27:36.727Z,86.11
2022-10-04T02:30:09.815Z,87.88
2022-10-04T02:33:08.272Z,88.91
2022-10-04T02:35:31.409Z,87.54
2022-10-04T02:38:08.942Z,88.94
2022-10-04T02:40:44.288Z,88.22
2022-10-04T02:43:16.611Z,87.67
2022-10-04T02:45:43.913Z,89.06
2022-10-04T02:48:17.595Z,90.37
2022-10-04T02:50:52.491Z,90.39
2022-10-04T02:53:26.715Z,89.56
2022-10-04T02:55:49.292Z,88.10
2022-10-04T02:58:15.241Z,88.00
2022-10-04T03:00:48.210Z,88.36
2022-10-04T03:03:29.555Z,90.14
2022-10-04T03:05:56.903Z,90.18
2022-10-04T03:08:18.716Z,89.26
2022-10-04T03:10:43.298Z,89.01
2022-10-04T03:13:04.990Z,88.42
2022-10-04T03:15:26.770Z,88.15
2022-10-04T03:17:50.248Z,87.94
2022-10-04T03:20:16.289Z,88.17
2022-10-04T03:22:42.590Z,88.39
2022-10-04T03:25:12.593Z,87.74
2022-10-04T03:27:36.178Z,87.44
2022-10-04T03:29:59.493Z,87.35
2022-10-04T03:32:21.488Z,88.63
2022-10-04T03:34:53.658Z,88.17
2022-10-04T03:37:19.324Z,87.64
2022-10-04T03:39:45.367Z,87.01
2022-10-04T03:42:19.681Z,86.98
2022-10-04T03:44:42.244Z,86.84
2022-10-04T03:47:11.178Z,86.57
2022-10-04T03:49:36.954Z,86.92
2022-10-04T03:52:01.087Z,87.02
2022-10-04T03:54:27.963Z,86.98
2022-10-04T03:56:53.032Z,87.03
2022-10-04T03:59:18.237Z,86.93
2022-10-04T04:01:49.997Z,86.77
2022-10-04T04:04:31.212Z,86.55
2022-10-04T04:07:01.596Z,86.39
2022-10-04T04:09:50.959Z,86.43
2022-10-04T04:12:23.546Z,86.88
2022-10-04T04:14:49.482Z,88.02
2022-10-04T04:17:26.267Z,87.86
2022-10-04T04:19:47.831Z,87.49
2022-10-04T04:22:16.733Z,87.74
2022-10-04T04:24:38.314Z,87.85
2022-10-04T04:27:05.283Z,88.42
2022-10-04T04:29:26.813Z,88.04
2022-10-04T04:31:54.861Z,87.46
2022-10-04T04:34:30.001Z,87.29
2022-10-04T04:36:57.061Z,87.23
2022-10-04T04:39:41.202Z,87.94
2022-10-04T04:42:10.495Z,88.64
2022-10-04T04:44:33.114Z,88.67
2022-10-04T04:46:56.776Z,88.31
2022-10-04T04:49:18.835Z,88.25
2022-10-04T04:51:41.827Z,88.80
2022-10-04T04:54:06.528Z,88.44
2022-10-04T04:56:29.948Z,88.05
2022-10-04T04:58:54.443Z,87.88
2022-10-04T05:01:25.918Z,87.68
2022-10-04T05:04:21.247Z,87.57
2022-10-04T05:06:45.241Z,87.77
2022-10-04T05:09:21.977Z,87.90
2022-10-04T05:11:43.657Z,87.88
2022-10-04T05:14:12.288Z,87.95
2022-10-04T05:16:51.839Z,87.40
2022-10-04T05:19:24.903Z,87.58
2022-10-04T05:21:47.495Z,88.37
2022-10-04T05:24:20.574Z,89.22
2022-10-04T05:26:42.957Z,90.99
2022-10-04T05:29:15.248Z,91.74
2022-10-04T05:31:50.750Z,91.15
2022-10-04T05:34:37.797Z,89.96
2022-10-04T05:37:19.367Z,91.35
2022-10-04T05:39:48.193Z,90.30
2022-10-04T05:42:30.349Z,89.69
2022-10-04T05:44:56.996Z,89.59
2022-10-04T05:47:23.953Z,89.31
2022-10-04T05:49:46.947Z,89.22
2022-10-04T05:52:16.420Z,89.07
2022-10-04T05:54:37.999Z,89.57
2022-10-04T05:57:04.015Z,89.58
2022-10-04T05:59:40.641Z,91.17
2022-10-04T06:02:04.896Z,91.70
2022-10-04T06:04:47.326Z,92.06
2022-10-04T06:07:34.574Z,90.60
2022-10-04T06:09:56.006Z,90.96
2022-10-04T06:12:34.024Z,91.78
2022-10-04T06:15:10.813Z,91.53
2022-10-04T06:17:55.437Z,92.75
2022-10-04T06:20:41.870Z,91.31
2022-10-04T06:23:13.792Z,91.40
2022-10-04T06:25:46.177Z,91.01
2022-10-04T06:28:17.331Z,90.22
2022-10-04T06:31:06.980Z,90.95
2022-10-04T06:33:34.273Z,90.94
2022-10-04T06:36:20.391Z,91.97
2022-10-04T06:38:59.061Z,91.62
2022-10-04T06:41:56.745Z,90.60
2022-10-04T06:44:30.852Z,90.90
2022-10-04T06:47:17.016Z,90.58
2022-10-04T06:49:48.668Z,89.16
2022-10-04T06:52:29.458Z,88.95
2022-10-04T06:55:22.572Z,88.47
2022-10-04T06:58:15.019Z,87.85
2022-10-04T07:00:56.679Z,88.08
2022-10-04T07:03:51.342Z,89.68
2022-10-04T07:06:14.056Z,89.47
2022-10-04T07:08:47.958Z,90.56
2022-10-04T07:11:24.778Z,90.21
2022-10-04T07:13:52.260Z,90.00
2022-10-04T07:16:16.855Z,89.06
2022-10-04T07:19:12.440Z,89.26
2022-10-04T07:21:41.502Z,88.10
2022-10-04T07:24:03.883Z,88.62
2022-10-04T07:26:28.397Z,87.93
2022-10-04T07:29:09.080Z,87.13
2022-10-04T07:31:34.527Z,86.51
2022-10-04T07:34:25.170Z,86.83
2022-10-04T07:36:51.749Z,87.81
2022-10-04T07:39:17.295Z,86.86
2022-10-04T07:41:57.711Z,85.48
2022-10-04T07:44:27.537Z,85.64
2022-10-04T07:47:12.620Z,85.15
2022-10-04T07:49:39.458Z,84.70
2022-10-04T07:52:28.891Z,84.61
2022-10-04T07:55:23.942Z,84.21
2022-10-04T07:58:14.613Z,83.71
2022-10-04T08:00:58.044Z,82.55
2022-10-04T08:04:04.445Z,82.66
2022-10-04T08:06:39.305Z,82.81
2022-10-04T08:09:28.687Z,82.18
2022-10-04T08:12:12.089Z,82.36
2022-10-04T08:14:53.131Z,82.12
2022-10-04T08:17:17.283Z,81.36
2022-10-04T08:19:52.274Z,79.91
2022-10-04T08:22:24.105Z,80.27
2022-10-04T08:24:53.640Z,79.13
2022-10-04T08:28:09.632Z,80.61
2022-10-04T08:30:51.914Z,81.23
2022-10-04T08:33:56.536Z,80.49
2022-10-04T08:36:33.170Z,80.88
2022-10-04T08:38:59.335Z,80.55
2022-10-04T08:42:01.877Z,79.58
2022-10-04T08:44:49.275Z,80.37
2022-10-04T08:47:32.161Z,79.32
2022-10-04T08:50:03.304Z,80.06
2022-10-04T08:52:52.459Z,80.24
2022-10-04T08:55:28.798Z,79.62
2022-10-04T08:58:18.539Z,79.61
2022-10-04T09:01:13.473Z,79.16
2022-10-04T09:04:19.325Z,79.58
2022-10-04T09:07:02.396Z,78.24
2022-10-04T09:09:46.478Z,77.89
2022-10-04T09:12:41.088Z,78.20
2022-10-04T09:15:20.935Z,78.52
2022-10-04T09:17:53.996Z,78.29
2022-10-04T09:20:52.478Z,78.08
2022-10-04T09:23:32.167Z,77.76
2022-10-04T09:26:21.262Z,79.48
2022-10-04T09:29:20.176Z,79.79
2022-10-04T09:32:18.485Z,78.47
2022-10-04T09:34:58.139Z,76.50
2022-10-04T09:37:37.085Z,78.15
2022-10-04T09:40:27.900Z,79.95
2022-10-04T09:43:07.312Z,83.16
2022-10-04T09:45:47.182Z,81.85
2022-10-04T09:48:54.994Z,82.12
2022-10-04T09:51:41.974Z,83.12
2022-10-04T09:54:20.068Z,82.44
2022-10-04T09:57:06.856Z,81.03
2022-10-04T09:59:28.327Z,81.14
2022-10-04T10:02:29.094Z,79.29
2022-10-04T10:05:12.475Z,81.75
2022-10-04T10:07:45.073Z,81.46
2022-10-04T10:10:40.463Z,81.20
2022-10-04T10:13:42.846Z,80.04
2022-10-04T10:16:40.775Z,77.52
2022-10-04T10:19:08.404Z,78.04
2022-10-04T10:21:55.493Z,73.84
2022-10-04T10:24:38.125Z,76.22
2022-10-04T10:27:19.656Z,78.53
2022-10-04T10:30:16.670Z,77.34
2022-10-04T10:33:15.707Z,73.58
2022-10-04T10:36:02.034Z,70.18
2022-10-04T10:38:40.940Z,69.93
2022-10-04T10:41:21.152Z,69.61
2022-10-04T10:43:52.937Z,67.32
2022-10-04T10:46:37.932Z,66.55
2022-10-04T10:49:27.351Z,65.82
2022-10-04T10:52:25.398Z,66.75
2022-10-04T10:55:11.822Z,64.90
2022-10-04T10:57:48.564Z,65.19
2022-10-04T11:00:22.200Z,63.89
2022-10-04T11:03:23.856Z,63.80
2022-10-04T11:06:10.293Z,63.71
2022-10-04T11:08:52.236Z,63.61
2022-10-04T11:11:31.837Z,63.02
2022-10-04T11:14:14.435Z,62.69
2022-10-04T11:17:09.639Z,64.02
2022-10-04T11:19:40.157Z,62.82
2022-10-04T11:22:14.146Z,62.68
2022-10-04T11:24:56.859Z,62.39
2022-10-04T11:27:37.916Z,62.89
2022-10-04T11:30:09.431Z,63.83
2022-10-04T11:33:09.537Z,60.95
2022-10-04T11:35:31.076Z,61.55
2022-10-04T11:38:23.162Z,64.13
2022-10-04T11:40:51.237Z,63.01
2022-10-04T11:43:32.000Z,63.35
2022-10-04T11:46:50.661Z,63.25
2022-10-04T11:49:39.553Z,62.37
2022-10-04T11:52:19.762Z,64.19
2022-10-04T11:55:21.090Z,64.47
2022-10-04T11:57:52.870Z,64.18
2022-10-04T12:00:20.760Z,63.20
2022-10-04T12:03:01.586Z,64.13
2022-10-04T12:05:38.713Z,64.49
2022-10-04T12:08:23.909Z,63.95
2022-10-04T12:11:03.196Z,64.20
2022-10-04T12:13:33.913Z,63.94
2022-10-04T12:16:30.714Z,64.55
2022-10-04T12:19:15.474Z,64.21
2022-10-04T12:21:51.171Z,64.89
2022-10-04T12:24:21.681Z,63.27
2022-10-04T12:26:59.687Z,61.97
2022-10-04T12:29:43.372Z,62.52
2022-10-04T12:32:14.142Z,62.17
2022-10-04T12:35:02.600Z,63.90
2022-10-04T12:37:54.219Z,64.81
2022-10-04T12:40:28.320Z,63.12
2022-10-04T12:42:56.433Z,63.44
2022-10-04T12:45:20.578Z,62.89
2022-10-04T12:47:52.983Z,62.79
2022-10-04T12:50:26.536Z,62.33
2022-10-04T12:53:06.062Z,64.15
2022-10-04T12:55:45.903Z,63.93
2022-10-04T12:58:43.229Z,64.54
2022-10-04T13:01:18.769Z,61.33
2022-10-04T13:04:09.654Z,64.04
2022-10-04T13:06:51.654Z,62.53
2022-10-04T13:09:29.066Z,62.39
2022-10-04T13:12:24.785Z,62.68
2022-10-04T13:15:07.535Z,62.25
2022-10-04T13:17:44.700Z,61.54
2022-10-04T13:20:46.652Z,62.08
2022-10-04T13:23:17.346Z,61.67
2022-10-04T13:25:47.192Z,62.62
2022-10-04T13:28:29.187Z,61.73
2022-10-04T13:31:15.612Z,61.90
2022-10-04T13:34:07.892Z,62.29
2022-10-04T13:36:56.979Z,62.55
2022-10-04T13:39:42.781Z,60.67
2022-10-04T13:42:12.399Z,62.68
2022-10-04T13:45:03.690Z,60.97
2022-10-04T13:47:43.753Z,60.89
2022-10-04T13:50:43.690Z,61.16
2022-10-04T13:53:35.978Z,60.58
2022-10-04T13:56:34.025Z,60.99
2022-10-04T13:59:16.031Z,61.26
2022-10-04T14:01:55.040Z,61.65
2022-10-04T14:04:35.370Z,62.11
2022-10-04T14:07:30.081Z,62.07
2022-10-04T14:10:12.548Z,62.06
2022-10-04T14:13:00.080Z,60.22
2022-10-04T14:15:41.243Z,59.68
2022-10-04T14:18:09.899Z,60.61
2022-10-04T14:20:34.412Z,60.86
2022-10-04T14:22:58.786Z,59.56
2022-10-04T14:26:01.428Z,59.27
2022-10-04T14:28:34.956Z,58.74
2022-10-04T14:31:37.994Z,57.79
2022-10-04T14:34:14.675Z,59.27
2022-10-04T14:37:01.163Z,58.20
2022-10-04T14:39:54.147Z,57.76
2022-10-04T14:42:46.556Z,57.13
2022-10-04T14:45:17.328Z,56.87
2022-10-04T14:48:15.615Z,55.44
2022-10-04T14:50:57.745Z,56.16
2022-10-04T14:53:42.473Z,55.85
2022-10-04T14:56:33.037Z,57.38
2022-10-04T14:59:13.136Z,56.15
2022-10-04T15:01:39.683Z,56.62
2022-10-04T15:04:32.547Z,55.98
2022-10-04T15:07:01.961Z,54.08
2022-10-04T15:09:35.384Z,54.93
2022-10-04T15:12:27.141Z,54.99
2022-10-04T15:15:13.176Z,54.30
2022-10-04T15:17:40.964Z,54.24
2022-10-04T15:20:20.130Z,55.35
2022-10-04T15:22:47.464Z,53.73
2022-10-04T15:25:39.265Z,53.99
2022-10-04T15:28:06.613Z,53.92
2022-10-04T15:30:38.542Z,54.61
2022-10-04T15:33:17.414Z,53.38
2022-10-04T15:35:57.127Z,52.66
2022-10-04T15:38:35.587Z,53.83
2022-10-04T15:41:18.969Z,53.87
2022-10-04T15:44:13.276Z,54.10
2022-10-04T15:46:38.655Z,54.58
2022-10-04T15:49:16.968Z,54.65
2022-10-04T15:51:53.443Z,54.88
2022-10-04T15:54:33.719Z,54.76
2022-10-04T15:56:59.014Z,54.54
2022-10-04T15:59:32.752Z,54.26
2022-10-04T16:02:41.931Z,54.80
2022-10-04T16:05:15.030Z,55.06
2022-10-04T16:07:50.217Z,55.11
2022-10-04T16:10:14.932Z,55.07
2022-10-04T16:13:19.780Z,54.33
2022-10-04T16:15:48.170Z,55.05
2022-10-04T16:18:15.826Z,55.89
2022-10-04T16:20:55.430Z,55.98
2022-10-04T16:23:33.031Z,55.83
2022-10-04T16:25:56.841Z,55.13
2022-10-04T16:28:53.355Z,55.49
2022-10-04T16:31:52.616Z,55.93
2022-10-04T16:34:29.630Z,55.56
2022-10-04T16:36:55.227Z,55.91
2022-10-04T16:39:56.179Z,57.17
2022-10-04T16:42:23.624Z,56.98
2022-10-04T16:44:54.968Z,57.31
2022-10-04T16:47:30.975Z,58.02
2022-10-04T16:49:55.344Z,58.81
2022-10-04T16:52:44.157Z,58.56
2022-10-04T16:55:09.157Z,60.01
2022-10-04T16:57:30.735Z,60.07
2022-10-04T16:59:55.563Z,60.47
2022-10-04T17:02:17.023Z,60.83
2022-10-04T17:04:41.166Z,61.45
2022-10-04T17:07:23.353Z,61.88
2022-10-04T17:10:06.714Z,63.38
2022-10-04T17:12:50.068Z,62.93
2022-10-04T17:15:14.313Z,63.71
2022-10-04T17:17:44.968Z,65.29
2022-10-04T17:20:39.501Z,66.14
2022-10-04T17:23:20.608Z,66.29
2022-10-04T17:26:06.411Z,66.29
2022-10-04T17:28:48.127Z,67.16
2022-10-04T17:31:17.960Z,67.19
2022-10-04T17:34:08.525Z,67.26
2022-10-04T17:36:39.238Z,69.30
2022-10-04T17:39:34.533Z,70.29
2022-10-04T17:42:13.638Z,71.27
2022-10-04T17:44:56.779Z,72.04
2022-10-04T17:47:54.979Z,72.21
2022-10-04T17:50:43.203Z,71.86
2022-10-04T17:53:33.271Z,72.48
2022-10-04T17:55:58.830Z,72.82
2022-10-04T17:58:26.682Z,72.44
2022-10-04T18:01:25.768Z,72.93
2022-10-04T18:03:52.436Z,72.57
2022-10-04T18:06:31.594Z,73.55
2022-10-04T18:08:58.687Z,74.52
2022-10-04T18:11:47.136Z,74.73
2022-10-04T18:14:42.023Z,74.25
2022-10-04T18:17:06.308Z,73.52
2022-10-04T18:19:52.209Z,74.49
2022-10-04T18:22:16.598Z,75.34
2022-10-04T18:24:38.137Z,75.33
2022-10-04T18:27:04.999Z,74.66
2022-10-04T18:29:41.411Z,73.74
2022-10-04T18:32:17.629Z,76.39
2022-10-04T18:34:40.275Z,76.45
2022-10-04T18:37:27.296Z,76.85
2022-10-04T18:39:54.595Z,77.66
2022-10-04T18:42:29.289Z,77.38
2022-10-04T18:45:00.272Z,77.95
2022-10-04T18:47:41.329Z,77.28
2022-10-04T18:50:29.179Z,77.08
2022-10-04T18:53:33.126Z,76.85
2022-10-04T18:56:03.991Z,76.86
2022-10-04T18:59:04.418Z,77.21
2022-10-04T19:01:56.550Z,77.13
2022-10-04T19:04:31.207Z,76.60
2022-10-04T19:06:59.473Z,78.51
2022-10-04T19:09:37.863Z,77.59
2022-10-04T19:12:11.356Z,78.92
2022-10-04T19:15:02.413Z,77.88
2022-10-04T19:18:04.210Z,78.73
2022-10-04T19:20:57.903Z,78.38
2022-10-04T19:23:28.351Z,79.16
2022-10-04T19:26:17.717Z,78.99
2022-10-04T19:28:37.673Z,78.80
2022-10-04T19:31:13.337Z,78.87
2022-10-04T19:34:01.306Z,79.69
2022-10-04T19:36:45.854Z,80.11
2022-10-04T19:39:25.109Z,78.67
2022-10-04T19:41:59.384Z,78.56
2022-10-04T19:44:58.331Z,78.40
2022-10-04T19:47:29.667Z,79.19
2022-10-04T19:50:05.641Z,79.02
2022-10-04T19:52:55.880Z,78.39
2022-10-04T19:55:29.240Z,79.08
2022-10-04T19:58:11.902Z,79.31
2022-10-04T20:00:35.764Z,80.31
2022-10-04T20:02:57.300Z,79.39
2022-10-04T20:05:28.150Z,78.92
2022-10-04T20:07:51.924Z,79.43
2022-10-04T20:10:28.116Z,79.39
2022-10-04T20:13:12.343Z,80.68
2022-10-04T20:15:34.869Z,80.69
2022-10-04T20:17:56.558Z,80.16
2022-10-04T20:20:43.133Z,81.32
2022-10-04T20:23:07.616Z,82.71
2022-10-04T20:25:49.456Z,80.99
2022-10-04T20:28:32.253Z,82.12
2022-10-04T20:30:56.253Z,81.40
2022-10-04T20:33:33.160Z,82.39
2022-10-04T20:36:02.405Z,82.03
2022-10-04T20:39:00.444Z,80.93
2022-10-04T20:41:28.094Z,81.23
2022-10-04T20:43:58.164Z,80.64
2022-10-04T20:46:31.679Z,79.75
2022-10-04T20:48:54.364Z,79.72
2022-10-04T20:51:21.791Z,79.74
2022-10-04T20:53:47.507Z,79.89
2022-10-04T20:56:24.073Z,80.52
2022-10-04T20:58:52.088Z,80.74
2022-10-04T21:01:36.923Z,81.96
2022-10-04T21:04:30.804Z,82.17
2022-10-04T21:06:54.014Z,82.16
2022-10-04T21:09:15.484Z,83.25
2022-10-04T21:11:45.644Z,82.85
2022-10-04T21:14:31.117Z,85.37
2022-10-04T21:17:01.598Z,84.14
2022-10-04T21:19:33.440Z,84.19
2022-10-04T21:21:56.149Z,85.46
2022-10-04T21:24:40.612Z,85.60
2022-10-04T21:27:02.779Z,85.25
2022-10-04T21:29:24.324Z,85.16
2022-10-04T21:31:45.832Z,84.54
2022-10-04T21:34:07.311Z,86.97
2022-10-04T21:36:28.777Z,85.77
2022-10-04T21:38:50.313Z,85.52
2022-10-04T21:41:11.742Z,85.49
2022-10-04T21:43:33.714Z,84.65
2022-10-04T21:45:55.236Z,84.14
2022-10-04T21:48:17.609Z,85.79
2022-10-04T21:50:39.159Z,84.62
2022-10-04T21:53:00.701Z,84.37
2022-10-04T21:55:22.140Z,84.33
2022-10-04T21:57:43.597Z,89.55
2022-10-04T22:00:05.719Z,90.95
2022-10-04T22:02:27.239Z,91.74
2022-10-04T22:04:48.706Z,90.85
2022-10-04T22:07:10.683Z,91.05
2022-10-04T22:09:33.947Z,91.25
2022-10-04T22:11:55.483Z,92.43
2022-10-04T22:14:16.948Z,92.08
2022-10-04T22:16:38.539Z,91.75
2022-10-04T22:19:00.073Z,90.92
2022-10-04T22:21:21.660Z,91.27
2022-10-04T22:23:44.768Z,90.09
2022-10-04T22:26:14.158Z,90.80
2022-10-04T22:28:38.746Z,89.85
2022-10-04T22:31:00.267Z,90.10
2022-10-04T22:33:34.917Z,89.83
2022-10-04T22:36:12.635Z,89.48
2022-10-04T22:38:34.125Z,88.46
2022-10-04T22:40:55.608Z,88.38
2022-10-04T22:43:17.118Z,88.60
2022-10-04T22:45:38.719Z,89.17
2022-10-04T22:48:06.671Z,89.40
2022-10-04T22:50:33.873Z,88.92
2022-10-04T22:52:55.947Z,88.18
2022-10-04T22:55:18.876Z,88.21
2022-10-04T22:57:40.361Z,88.14
2022-10-04T23:00:02.302Z,88.32
2022-10-04T23:02:29.261Z,88.44
2022-10-04T23:04:53.830Z,88.37
2022-10-04T23:07:15.442Z,88.22
2022-10-04T23:09:36.940Z,87.94
2022-10-04T23:11:58.410Z,88.38
2022-10-04T23:14:19.864Z,88.18
2022-10-04T23:16:42.951Z,88.03
2022-10-04T23:19:13.451Z,87.30
2022-10-04T23:21:37.593Z,87.32
2022-10-04T23:24:07.531Z,87.53
2022-10-04T23:26:39.398Z,88.49
2022-10-04T23:29:01.253Z,88.89
2022-10-04T23:31:25.004Z,88.28
2022-10-04T23:33:46.516Z,89.63
2022-10-04T23:36:14.187Z,89.57
2022-10-04T23:38:35.744Z,89.11
2022-10-04T23:40:57.260Z,91.15
2022-10-04T23:43:24.998Z,90.92
2022-10-04T23:45:46.565Z,90.85
2022-10-04T23:48:11.087Z,90.54
2022-10-04T23:50:35.989Z,91.49
2022-10-04T23:53:04.456Z,92.26
2022-10-04T23:55:38.734Z,91.44
2022-10-04T23:58:00.790Z,91.25
